map of LDV home
LDV - Airport
Location
City:  Landivisiau, Bretagne, France
Name:Landivisiau Airport
ICAO:LFRJ
IATA:LDV

Details
Type:Airport (Aerodrome, Airfield)
Use:Military
Latitude:4831'49"N (48.530278)
Longitude:409'05"W (-4.151388)
Elevation:348 ft (106 m)
Variation:1.34W (WMM2015 magnetic declination)
0.14 annual change
Runways:1
Longest:8858 × 148 ft (2700 × 45 m)

Time
Time Zone:UTC+1 (DST+2)
Local Time:

Weather
METAR:LFRJ 210930Z AUTO 24005KT 9000 OVC041 03/02 Q1025 TEMPO SHRA

Related Locations
Nearby:
Farthest:NZTI: 12119 mi / 19503 km
Taieri, OTA, NZ

Find:

   beyond  
but within

Other Information
Maps:
NOTAMs:
Links:
Sources:

  
  • flag of France
  • flag of Bretagne
  

Sectional Chart

Flight Planning
at skyvector.com

Satellite Image

Google Maps Satellite view

 

Copyright © 2004-2019 Karl L. Swartz. All rights reserved.
The Great Circle Mapper name and logo are trademarks of the Great Circle Mapper.
All other trademarks mentioned herein belong to their respective owners.
Please see credits for attibutions and further copyright information.

  Follow gcmap on Facebook Follow gcmap on Twitter Follow gcmap on Google+ GCmap on LinkedIn

hCard Microformat

Geo Microformat